Time;durP1;ratioP1;P1;durP2;ratioP2;P2;SDS_P1;SDS_P2;PMS_P1;PMS_P2;Temp;Humidity;BMP_temperature;BMP_pressure;BME280_temperature;BME280_humidity;BME280_pressure;Samples;Min_cycle;Max_cycle;Signal;HPM_P1;HPM_P2
2022/04/11 00:01:20;;;;;;;4.03;3.63;;;;;;;2.91;100.00;99840.00;6125363;23;20612;-78
2022/04/11 00:03:46;;;;;;;5.03;3.47;;;;;;;2.89;100.00;99849.09;6125224;23;20659;-78
2022/04/11 00:06:13;;;;;;;4.07;3.63;;;;;;;2.81;100.00;99836.66;6125213;23;20160;-78
2022/04/11 00:08:40;;;;;;;3.80;3.40;;;;;;;2.85;100.00;99845.94;6125403;23;20155;-78
2022/04/11 00:11:07;;;;;;;3.23;2.93;;;;;;;2.73;100.00;99833.19;6099833;23;20499;-78
2022/04/11 00:13:34;;;;;;;4.47;3.80;;;;;;;2.78;100.00;99842.31;6125335;23;20251;-78
2022/04/11 00:16:01;;;;;;;5.03;3.80;;;;;;;2.82;100.00;99840.97;6125102;23;20194;-78
2022/04/11 00:18:27;;;;;;;4.40;3.90;;;;;;;2.82;100.00;99837.50;6125285;23;20196;-78
2022/04/11 00:20:54;;;;;;;4.20;3.80;;;;;;;2.88;100.00;99835.03;6125051;23;20176;-78
2022/04/11 00:23:22;;;;;;;3.70;3.40;;;;;;;2.76;100.00;99831.03;6125559;23;20200;-78
2022/04/11 00:25:48;;;;;;;3.93;3.57;;;;;;;2.95;100.00;99830.72;6125252;23;20167;-78
2022/04/11 00:28:15;;;;;;;4.37;3.90;;;;;;;2.91;100.00;99825.94;6125468;23;20246;-78
2022/04/11 00:30:42;;;;;;;4.00;3.50;;;;;;;3.07;100.00;99828.59;6124866;23;20189;-78
2022/04/11 00:33:09;;;;;;;4.67;4.00;;;;;;;2.98;100.00;99827.75;6123747;23;20175;-77
2022/04/11 00:35:35;;;;;;;5.00;4.00;;;;;;;2.83;100.00;99823.28;6124911;23;20160;-78
2022/04/11 00:38:02;;;;;;;4.60;4.10;;;;;;;2.78;100.00;99834.38;6125350;23;20620;-78
2022/04/11 00:40:29;;;;;;;4.63;4.13;;;;;;;2.77;100.00;99843.28;6124938;23;20199;-78
2022/04/11 00:42:55;;;;;;;4.17;3.63;;;;;;;2.89;100.00;99838.50;6098813;23;20274;-78
2022/04/11 00:45:22;;;;;;;4.20;3.80;;;;;;;2.82;100.00;99845.44;6125000;23;20660;-78
2022/04/11 00:47:49;;;;;;;5.30;3.90;;;;;;;2.83;100.00;99849.75;6125074;23;20170;-78
2022/04/11 00:50:16;;;;;;;4.30;3.90;;;;;;;2.77;100.00;99840.66;6124920;23;20218;-78
2022/04/11 00:52:49;;;;;;;4.63;3.83;;;;;;;2.83;100.00;99847.09;6125161;23;20220;-78
2022/04/11 00:55:21;;;;;;;4.70;4.00;;;;;;;2.84;100.00;99851.41;6099546;23;20214;-78
2022/04/11 00:57:48;;;;;;;4.57;4.17;;;;;;;2.81;100.00;99854.38;6099701;23;20168;-78
2022/04/11 01:00:16;;;;;;;4.20;3.80;;;;;;;3.06;100.00;99853.38;6125246;23;20186;-79
2022/04/11 01:02:43;;;;;;;5.10;4.27;;;;;;;2.97;100.00;99846.44;6125133;23;20636;-78
2022/04/11 01:05:11;;;;;;;5.10;4.23;;;;;;;2.92;100.00;99856.69;6126954;23;20574;-78
2022/04/11 01:07:38;;;;;;;4.23;3.83;;;;;;;2.92;100.00;99857.53;6127058;23;20163;-78
2022/04/11 01:10:06;;;;;;;4.60;4.20;;;;;;;2.78;100.00;99852.88;6101471;23;20247;-78
2022/04/11 01:12:33;;;;;;;4.53;4.00;;;;;;;2.86;100.00;99863.47;6101520;23;20636;-77
2022/04/11 01:15:00;;;;;;;4.33;3.90;;;;;;;2.79;100.00;99861.66;6101091;23;20171;-78
2022/04/11 01:17:34;;;;;;;5.33;4.27;;;;;;;2.86;100.00;99863.47;6126998;23;20171;-78
2022/04/11 01:20:10;;;;;;;4.40;4.00;;;;;;;2.78;100.00;99860.84;6120173;23;20211;-78
2022/04/11 01:22:41;;;;;;;5.03;3.90;;;;;;;2.94;100.00;99857.38;6096244;23;20180;-78
2022/04/11 01:25:09;;;;;;;5.70;4.10;;;;;;;2.83;100.00;99863.81;6095990;23;20217;-78
2022/04/11 01:27:38;;;;;;;5.83;4.00;;;;;;;2.80;100.00;99855.38;6096203;23;20562;-78
2022/04/11 01:30:07;;;;;;;5.70;4.20;;;;;;;2.79;100.00;99864.31;6097486;23;20553;-77
2022/04/11 01:32:38;;;;;;;5.20;4.00;;;;;;;2.93;100.00;99864.50;6096288;23;20234;-78
2022/04/11 01:35:17;;;;;;;4.10;3.70;;;;;;;3.04;100.00;99864.13;6097610;23;20497;-78
2022/04/11 01:37:44;;;;;;;4.27;3.80;;;;;;;2.93;100.00;99874.25;6098128;23;20191;-77
2022/04/11 01:40:11;;;;;;;5.13;4.27;;;;;;;2.94;100.00;99871.41;6095814;23;20172;-78
2022/04/11 01:42:38;;;;;;;4.17;3.70;;;;;;;2.95;100.00;99869.59;6095766;23;20252;-78
2022/04/11 01:45:09;;;;;;;4.27;3.87;;;;;;;3.03;100.00;99873.06;6095699;23;20645;-78
2022/04/11 01:47:39;;;;;;;4.97;4.27;;;;;;;3.01;100.00;99874.22;6096123;23;20168;-78
2022/04/11 01:50:07;;;;;;;5.23;3.90;;;;;;;2.98;100.00;99874.56;6097681;23;20169;-78
2022/04/11 01:52:34;;;;;;;4.50;4.10;;;;;;;3.12;100.00;99867.78;6097331;23;20186;-78
2022/04/11 01:55:02;;;;;;;4.10;3.67;;;;;;;2.97;100.00;99865.81;6097280;23;20220;-78
2022/04/11 01:57:44;;;;;;;4.33;3.93;;;;;;;2.89;100.00;99862.34;6095937;23;20180;-78
2022/04/11 02:00:11;;;;;;;4.20;3.70;;;;;;;2.96;100.00;99863.31;6095782;23;20658;-78
2022/04/11 02:02:43;;;;;;;5.07;3.67;;;;;;;2.92;100.00;99857.53;6073026;23;20251;-78
2022/04/11 02:05:10;;;;;;;4.53;4.00;;;;;;;2.89;100.00;99863.13;6095805;23;20192;-78
2022/04/11 02:07:37;;;;;;;6.07;3.97;;;;;;;2.86;100.00;99863.47;6095829;23;20164;-78
2022/04/11 02:10:05;;;;;;;4.90;4.20;;;;;;;3.05;100.00;99860.50;6095786;23;20259;-78
2022/04/11 02:12:32;;;;;;;5.07;4.00;;;;;;;2.91;100.00;99863.81;6097291;23;20188;-78
2022/04/11 02:14:59;;;;;;;4.40;3.97;;;;;;;2.89;100.00;99865.78;6097065;23;20169;-78
2022/04/11 02:17:26;;;;;;;4.30;3.90;;;;;;;2.82;100.00;99861.31;6095526;23;20252;-78
2022/04/11 02:19:53;;;;;;;4.13;3.70;;;;;;;2.69;100.00;99863.63;6095650;23;20212;-79
2022/04/11 02:22:20;;;;;;;5.43;4.20;;;;;;;2.62;100.00;99861.63;6095560;23;20253;-78
2022/04/11 02:24:46;;;;;;;5.50;4.40;;;;;;;2.65;100.00;99865.78;6097255;23;20569;-78
2022/04/11 02:27:14;;;;;;;4.30;3.87;;;;;;;2.56;100.00;99864.94;6071540;23;20179;-78
2022/04/11 02:29:41;;;;;;;5.03;4.30;;;;;;;2.61;100.00;99867.09;6120194;23;20231;-78
2022/04/11 02:32:08;;;;;;;4.10;3.70;;;;;;;2.49;100.00;99866.56;6120057;23;20175;-78
2022/04/11 02:34:35;;;;;;;4.40;4.00;;;;;;;2.52;100.00;99868.06;6097025;23;20189;-78
2022/04/11 02:37:02;;;;;;;4.63;4.13;;;;;;;2.57;100.00;99871.03;6095485;23;20169;-78
2022/04/11 02:39:28;;;;;;;4.67;4.27;;;;;;;2.62;100.00;99874.03;6119768;23;20176;-78
2022/04/11 02:41:55;;;;;;;4.47;3.77;;;;;;;2.70;100.00;99876.69;6095008;23;20176;-78
2022/04/11 02:44:23;;;;;;;4.13;3.73;;;;;;;2.57;100.00;99876.31;6095110;23;20193;-78
2022/04/11 02:46:50;;;;;;;4.30;3.90;;;;;;;2.58;100.00;99884.09;6095164;23;20270;-78
2022/04/11 02:49:17;;;;;;;4.83;4.17;;;;;;;2.63;100.00;99881.81;6096768;23;20171;-78
2022/04/11 02:51:50;;;;;;;4.50;3.93;;;;;;;2.88;100.00;99882.69;6095090;23;20219;-78
2022/04/11 02:54:17;;;;;;;4.50;4.10;;;;;;;2.75;100.00;99892.91;6095339;23;20176;-78
2022/04/11 02:56:46;;;;;;;4.43;4.00;;;;;;;2.78;100.00;99895.22;6095127;23;20508;-78
2022/04/11 02:59:13;;;;;;;4.83;4.00;;;;;;;2.78;100.00;99897.03;6095269;23;20177;-78
2022/04/11 03:01:45;;;;;;;4.87;4.13;;;;;;;2.78;100.00;99895.22;6095013;23;20178;-78
2022/04/11 03:04:13;;;;;;;5.40;4.10;;;;;;;2.78;100.00;99899.69;6071570;23;20570;-78
2022/04/11 03:07:06;;;;;;;4.73;4.23;;;;;;;2.84;100.00;99905.16;6094912;23;20203;-78
2022/04/11 03:09:33;;;;;;;4.60;4.10;;;;;;;2.77;100.00;99900.66;6071365;23;20697;-78
2022/04/11 03:12:00;;;;;;;5.73;4.20;;;;;;;3.04;100.00;99900.38;6094691;23;20169;-79
2022/04/11 03:14:29;;;;;;;3.97;3.57;;;;;;;3.10;100.00;99911.13;6096770;23;20255;-77
2022/04/11 03:16:55;;;;;;;4.07;3.67;;;;;;;3.06;100.00;99901.03;6094787;23;20247;-78
2022/04/11 03:19:23;;;;;;;5.50;4.63;;;;;;;2.96;100.00;99906.50;6094739;23;20563;-78
2022/04/11 03:21:50;;;;;;;5.27;4.40;;;;;;;3.04;100.00;99910.94;6119215;23;20252;-78
2022/04/11 03:24:17;;;;;;;5.37;4.20;;;;;;;2.94;100.00;99903.16;6094929;23;20216;-78
2022/04/11 03:26:44;;;;;;;4.40;4.00;;;;;;;2.95;100.00;99907.47;6094652;23;20203;-78
2022/04/11 03:29:19;;;;;;;5.77;3.93;;;;;;;2.98;100.00;99914.28;6094998;23;20510;-78
2022/04/11 03:31:46;;;;;;;4.43;4.03;;;;;;;2.97;100.00;99913.44;6094877;23;20172;-78
2022/04/11 03:34:14;;;;;;;4.73;4.20;;;;;;;3.06;100.00;99915.09;6094685;23;20618;-79
2022/04/11 03:36:41;;;;;;;5.13;4.07;;;;;;;3.09;100.00;99916.59;6094524;23;20172;-78
2022/04/11 03:39:07;;;;;;;5.60;4.17;;;;;;;3.05;100.00;99910.81;6094871;23;20171;-78
2022/04/11 03:41:38;;;;;;;5.10;4.10;;;;;;;3.03;100.00;99914.63;6095048;23;20268;-78
2022/04/11 03:44:13;;;;;;;4.67;4.20;;;;;;;2.96;100.00;99921.53;6094721;23;20222;-79
2022/04/11 03:46:42;;;;;;;4.63;4.20;;;;;;;3.00;100.00;99925.50;6094908;23;20168;-78
2022/04/11 03:49:11;;;;;;;6.10;4.30;;;;;;;3.00;100.00;99921.06;6094726;23;20232;-78
2022/04/11 03:51:38;;;;;;;6.13;4.37;;;;;;;3.00;100.00;99923.69;6094693;23;20232;-78
2022/04/11 03:54:05;;;;;;;4.57;4.17;;;;;;;2.97;100.00;99924.03;6119284;23;20200;-78
2022/04/11 03:56:32;;;;;;;5.60;4.17;;;;;;;3.13;100.00;99933.00;6094851;23;20225;-78
2022/04/11 03:59:02;;;;;;;4.10;3.70;;;;;;;3.10;100.00;99924.38;6094597;23;20220;-78
2022/04/11 04:01:29;;;;;;;4.40;3.93;;;;;;;3.06;100.00;99928.34;6096372;23;20228;-78
2022/04/11 04:03:58;;;;;;;5.53;4.47;;;;;;;3.18;100.00;99931.47;6071303;23;20187;-78
2022/04/11 04:06:25;;;;;;;5.67;4.20;;;;;;;3.17;100.00;99935.16;6095907;23;20498;-78
2022/04/11 04:08:51;;;;;;;5.20;4.23;;;;;;;3.18;100.00;99938.59;6096342;23;20164;-78
2022/04/11 04:11:27;;;;;;;4.37;3.97;;;;;;;3.19;100.00;99938.44;6094434;23;20228;-77
2022/04/11 04:14:14;;;;;;;4.80;4.20;;;;;;;3.17;100.00;99940.44;6080691;23;20267;-78
2022/04/11 04:16:45;;;;;;;5.67;4.20;;;;;;;3.13;100.00;99947.03;6071736;23;20219;-78
2022/04/11 04:19:15;;;;;;;5.83;4.40;;;;;;;3.10;100.00;99944.72;6093865;23;20207;-78
2022/04/11 04:21:42;;;;;;;5.40;4.00;;;;;;;3.22;100.00;99953.19;6094346;23;20173;-77
2022/04/11 04:24:12;;;;;;;4.63;4.20;;;;;;;3.16;100.00;99940.59;6094186;23;20199;-78
2022/04/11 04:26:39;;;;;;;5.33;4.20;;;;;;;3.12;100.00;99948.03;6094335;23;20176;-77
2022/04/11 04:29:08;;;;;;;5.50;4.23;;;;;;;3.13;100.00;99949.69;6093967;23;20196;-75
2022/04/11 04:31:39;;;;;;;5.47;4.27;;;;;;;3.10;100.00;99952.66;6118458;23;20168;-77
2022/04/11 04:34:06;;;;;;;4.87;4.37;;;;;;;3.05;100.00;99950.50;6094272;23;20614;-78
2022/04/11 04:36:33;;;;;;;5.10;4.30;;;;;;;3.02;100.00;99956.13;6094050;23;20179;-78
2022/04/11 04:39:02;;;;;;;4.80;4.20;;;;;;;3.07;100.00;99953.00;6094169;23;20195;-78
2022/04/11 04:41:32;;;;;;;4.87;4.37;;;;;;;3.07;100.00;99953.84;6094108;23;20204;-77
2022/04/11 04:43:58;;;;;;;5.50;4.20;;;;;;;3.10;100.00;99957.97;6070045;23;20211;-78
2022/04/11 04:46:25;;;;;;;4.70;4.10;;;;;;;3.09;100.00;99954.47;6093900;23;20179;-78
2022/04/11 04:48:58;;;;;;;4.93;4.10;;;;;;;3.17;100.00;99964.28;6096237;23;20172;-78
2022/04/11 04:51:26;;;;;;;4.33;3.93;;;;;;;3.30;100.00;99963.78;6093720;23;20176;-77
2022/04/11 04:53:59;;;;;;;5.17;4.30;;;;;;;3.50;100.00;99965.09;6094193;23;20168;-78
2022/04/11 04:56:31;;;;;;;5.27;4.70;;;;;;;3.81;100.00;99967.88;6093947;23;20243;-77
2022/04/11 04:59:02;;;;;;;6.63;4.57;;;;;;;4.06;100.00;99964.19;6094206;23;20165;-77
2022/04/11 05:01:29;;;;;;;4.43;4.03;;;;;;;4.35;100.00;99960.94;6118243;23;20172;-78
2022/04/11 05:03:56;;;;;;;6.70;4.27;;;;;;;4.59;100.00;99970.63;6094174;23;20172;-77
2022/04/11 05:06:29;;;;;;;4.13;3.77;;;;;;;4.77;100.00;99964.06;6093637;23;20550;-77
2022/04/11 05:08:56;;;;;;;5.07;3.87;;;;;;;4.91;100.00;99970.47;6094181;23;20573;-78
2022/04/11 05:11:22;;;;;;;6.60;4.10;;;;;;;5.03;100.00;99962.94;6093710;23;20211;-76
2022/04/11 05:13:49;;;;;;;6.13;4.17;;;;;;;4.97;100.00;99968.94;6095756;23;20160;-76
2022/04/11 05:16:23;;;;;;;5.30;4.17;;;;;;;5.14;100.00;99973.13;6092300;23;20203;-75
2022/04/11 05:18:49;;;;;;;4.93;4.10;;;;;;;5.27;100.00;99976.84;6106117;23;20191;-76
2022/04/11 05:21:16;;;;;;;5.10;3.70;;;;;;;5.33;98.48;99975.31;6122867;23;20191;-76
2022/04/11 05:23:43;;;;;;;4.47;4.07;;;;;;;5.40;96.93;99981.59;6123196;23;20175;-77
2022/04/11 05:26:11;;;;;;;4.43;4.03;;;;;;;5.35;93.44;99976.00;6121230;23;20203;-78
2022/04/11 05:28:38;;;;;;;5.67;3.87;;;;;;;5.56;89.96;99980.63;6122168;23;20175;-78
2022/04/11 05:31:04;;;;;;;5.27;3.40;;;;;;;5.71;88.24;99978.84;6097324;23;20168;-75
2022/04/11 05:33:35;;;;;;;5.40;3.60;;;;;;;5.76;87.45;99990.59;6098164;23;20195;-75
2022/04/11 05:36:05;;;;;;;4.30;3.73;;;;;;;5.83;83.33;99980.06;6098294;23;20172;-78
2022/04/11 05:38:32;;;;;;;5.40;3.73;;;;;;;5.93;83.01;99979.81;6124443;23;20160;-76
2022/04/11 05:40:59;;;;;;;3.70;3.23;;;;;;;6.03;82.89;99978.56;6098518;23;20234;-76
2022/04/11 05:43:33;;;;;;;3.97;3.27;;;;;;;6.13;81.40;99988.94;6098358;23;20882;-76
2022/04/11 05:46:01;;;;;;;3.97;3.40;;;;;;;6.29;79.10;99982.63;6098839;23;20222;-76
2022/04/11 05:48:32;;;;;;;4.13;3.50;;;;;;;6.56;76.86;99982.81;6098651;23;20174;-77
2022/04/11 05:50:59;;;;;;;4.57;3.40;;;;;;;6.61;75.85;99987.56;6100166;23;20231;-76
2022/04/11 05:53:26;;;;;;;5.73;3.30;;;;;;;6.48;75.52;99982.06;6124842;23;20194;-76
2022/04/11 05:55:54;;;;;;;3.73;3.20;;;;;;;6.43;74.95;99984.47;6124857;23;20176;-76
2022/04/11 05:58:21;;;;;;;4.30;3.20;;;;;;;6.61;71.89;99990.22;6100228;23;20167;-76
2022/04/11 06:00:56;;;;;;;4.20;2.83;;;;;;;6.69;71.80;99981.31;6124840;23;20172;-76
2022/04/11 06:03:22;;;;;;;2.50;2.30;;;;;;;6.87;66.52;99990.53;6124555;23;20168;-78
2022/04/11 06:05:49;;;;;;;5.33;2.80;;;;;;;6.79;65.65;99985.34;6100136;23;20191;-76
2022/04/11 06:08:16;;;;;;;4.00;2.37;;;;;;;6.80;64.89;99992.31;6124784;23;20172;-76
2022/04/11 06:10:44;;;;;;;3.80;2.10;;;;;;;6.97;63.16;99996.41;6100108;23;20178;-76
2022/04/11 06:13:16;;;;;;;4.60;2.20;;;;;;;6.92;62.92;100000.63;6124705;23;20172;-76
2022/04/11 06:15:44;;;;;;;3.90;2.23;;;;;;;7.07;63.37;99996.94;6100138;23;20203;-76
2022/04/11 06:18:11;;;;;;;5.60;2.37;;;;;;;7.14;60.86;99993.53;6125822;23;20195;-77
2022/04/11 06:20:38;;;;;;;2.53;1.93;;;;;;;7.15;60.09;100001.31;6100115;23;20249;-76
2022/04/11 06:23:05;;;;;;;2.60;1.73;;;;;;;7.09;60.98;99997.56;6100198;23;20617;-76
2022/04/11 06:25:33;;;;;;;3.37;2.10;;;;;;;7.23;59.96;99989.72;6099831;23;20637;-76
2022/04/11 06:28:01;;;;;;;4.33;2.23;;;;;;;7.27;60.36;100007.81;6099857;23;20175;-77
2022/04/11 06:30:28;;;;;;;3.47;2.00;;;;;;;7.16;59.54;100002.97;6099996;23;20190;-76
2022/04/11 06:32:55;;;;;;;2.40;1.70;;;;;;;7.32;61.09;100007.25;6100092;23;20218;-76
2022/04/11 06:35:22;;;;;;;4.53;2.03;;;;;;;7.43;58.74;100002.22;6099844;23;20175;-76
2022/04/11 06:37:49;;;;;;;2.50;2.07;;;;;;;7.59;57.75;100006.50;6125857;23;20164;-76
2022/04/11 06:40:17;;;;;;;3.17;2.30;;;;;;;7.66;57.78;100006.53;6124345;23;20513;-76
2022/04/11 06:42:44;;;;;;;3.57;1.83;;;;;;;7.66;58.51;100009.19;6099804;23;20175;-76
2022/04/11 06:45:30;;;;;;;5.27;2.40;;;;;;;7.66;58.75;100011.88;6125402;23;20640;-77
2022/04/11 06:48:02;;;;;;;4.77;2.37;;;;;;;7.66;58.16;100010.03;6077198;23;20175;-76
2022/04/11 06:50:29;;;;;;;4.00;2.30;;;;;;;7.78;58.07;100005.84;6125564;23;20195;-76
2022/04/11 06:52:55;;;;;;;5.53;2.70;;;;;;;7.70;57.92;100008.63;6125769;23;20174;-76
2022/04/11 06:55:22;;;;;;;5.73;2.23;;;;;;;7.78;57.58;100013.03;6124153;23;20618;-75
2022/04/11 06:57:49;;;;;;;3.83;2.17;;;;;;;7.82;56.08;100006.28;6125552;23;20168;-76
2022/04/11 07:00:16;;;;;;;3.50;1.87;;;;;;;7.88;55.15;100006.34;6125758;23;20168;-77
2022/04/11 07:02:43;;;;;;;3.53;2.40;;;;;;;7.85;55.25;100008.56;6125561;23;20234;-76
2022/04/11 07:05:10;;;;;;;4.20;2.10;;;;;;;7.84;55.25;100015.72;6125185;23;20179;-76
2022/04/11 07:07:39;;;;;;;3.97;2.10;;;;;;;7.69;55.93;100017.66;6125915;23;20239;-76
2022/04/11 07:10:07;;;;;;;3.17;1.93;;;;;;;7.76;56.60;100012.38;6125617;23;20188;-76
2022/04/11 07:12:37;;;;;;;3.77;1.73;;;;;;;7.77;55.81;100011.38;6125239;23;20234;-76
2022/04/11 07:15:05;;;;;;;5.20;1.93;;;;;;;7.75;56.46;100016.06;6125455;23;20152;-77
2022/04/11 07:17:32;;;;;;;3.63;2.37;;;;;;;7.86;55.93;100012.88;6125429;23;20164;-77
2022/04/11 07:19:59;;;;;;;3.60;2.20;;;;;;;7.81;54.99;100016.13;6125419;23;20198;-76
2022/04/11 07:22:26;;;;;;;3.83;2.17;;;;;;;7.93;54.26;100016.44;6125302;23;20167;-76
2022/04/11 07:24:52;;;;;;;3.70;2.10;;;;;;;7.89;53.34;100017.81;6125268;23;20218;-76
2022/04/11 07:27:19;;;;;;;3.13;2.23;;;;;;;7.82;54.92;100007.09;6125408;23;20610;-76
2022/04/11 07:29:45;;;;;;;3.70;2.23;;;;;;;8.04;54.02;100021.22;6125387;23;20243;-76
2022/04/11 07:32:12;;;;;;;2.87;1.90;;;;;;;7.87;54.00;100014.53;6125423;23;20740;-76
2022/04/11 07:34:40;;;;;;;3.47;2.07;;;;;;;7.89;54.98;100018.63;6125623;23;20888;-76
2022/04/11 07:37:07;;;;;;;2.70;2.20;;;;;;;8.15;54.79;100010.03;6124939;23;20184;-76
2022/04/11 07:39:34;;;;;;;4.40;2.13;;;;;;;8.15;52.47;100014.53;6125429;23;20164;-76
2022/04/11 07:42:01;;;;;;;4.13;2.30;;;;;;;8.25;54.37;100013.19;6125125;23;20199;-77
2022/04/11 07:44:28;;;;;;;3.47;2.40;;;;;;;8.40;52.77;100018.41;6124475;23;20447;-76
2022/04/11 07:46:54;;;;;;;4.43;2.40;;;;;;;8.42;52.35;100018.22;6124513;23;20206;-76
2022/04/11 07:49:21;;;;;;;3.93;2.30;;;;;;;8.50;52.03;100016.22;6125224;23;20162;-76
2022/04/11 07:51:48;;;;;;;3.60;2.37;;;;;;;8.45;51.27;100007.16;6124887;23;20163;-76
2022/04/11 07:54:15;;;;;;;3.67;2.20;;;;;;;8.58;52.11;100013.41;6125181;23;20282;-77
2022/04/11 07:56:42;;;;;;;4.20;2.37;;;;;;;8.77;51.51;100009.19;6125113;23;20227;-76
2022/04/11 07:59:08;;;;;;;2.77;2.20;;;;;;;8.67;50.52;100014.06;6125193;23;20239;-76
2022/04/11 08:01:35;;;;;;;4.20;2.20;;;;;;;8.61;50.96;100005.00;6124557;23;20168;-76
2022/04/11 08:04:02;;;;;;;3.17;2.17;;;;;;;8.50;51.12;100018.91;6125037;23;20849;-76
2022/04/11 08:06:29;;;;;;;4.47;2.20;;;;;;;8.64;51.37;100015.28;6124905;23;20660;-76
2022/04/11 08:08:56;;;;;;;2.57;2.10;;;;;;;8.73;50.06;99998.06;6124882;23;20262;-76
2022/04/11 08:11:23;;;;;;;3.07;1.90;;;;;;;8.75;50.45;99998.69;6125078;23;20164;-76
2022/04/11 08:13:50;;;;;;;4.10;2.10;;;;;;;8.75;50.53;100003.22;6124998;23;20215;-76
2022/04/11 08:16:17;;;;;;;3.90;2.10;;;;;;;8.93;51.54;99991.97;6125258;23;20554;-76
2022/04/11 08:18:44;;;;;;;2.33;2.07;;;;;;;8.98;49.87;99997.53;6124808;23;20191;-76
2022/04/11 08:21:10;;;;;;;3.93;1.87;;;;;;;9.20;49.19;99996.38;6125251;23;20251;-76
2022/04/11 08:23:37;;;;;;;3.47;2.10;;;;;;;9.42;49.45;100000.56;6124846;23;20198;-76
2022/04/11 08:26:04;;;;;;;3.03;2.50;;;;;;;9.26;47.33;99995.59;6124893;23;20179;-76
2022/04/11 08:28:31;;;;;;;2.27;2.07;;;;;;;9.11;47.24;100006.44;6124719;23;20685;-76
2022/04/11 08:30:58;;;;;;;4.17;1.90;;;;;;;8.94;48.20;99993.63;6124552;23;20172;-76
2022/04/11 08:33:25;;;;;;;4.37;2.10;;;;;;;8.95;47.44;100004.13;6124983;23;20548;-76
2022/04/11 08:35:52;;;;;;;3.97;2.07;;;;;;;8.80;48.30;99993.59;6124570;23;20162;-77
2022/04/11 08:38:19;;;;;;;3.63;2.27;;;;;;;8.89;47.68;99996.91;6124625;23;20194;-76
2022/04/11 08:40:46;;;;;;;3.13;1.90;;;;;;;8.87;47.90;99992.75;6099353;23;20166;-76
2022/04/11 08:43:13;;;;;;;3.70;2.20;;;;;;;9.11;48.17;99989.56;6124634;23;20667;-76
2022/04/11 08:45:41;;;;;;;4.33;2.20;;;;;;;8.74;47.74;100005.06;6124471;23;20181;-75
2022/04/11 08:48:08;;;;;;;3.77;2.30;;;;;;;8.83;47.23;100003.88;6124697;23;20196;-75
2022/04/11 08:50:34;;;;;;;4.07;2.40;;;;;;;9.03;47.98;100000.44;6099157;23;20250;-75
2022/04/11 08:53:01;;;;;;;4.57;2.30;;;;;;;9.11;48.64;100001.09;6124474;23;20166;-75
2022/04/11 08:55:28;;;;;;;4.37;2.57;;;;;;;9.36;48.14;99990.66;6124590;23;20246;-75
2022/04/11 08:57:58;;;;;;;3.17;2.03;;;;;;;9.44;45.82;99984.28;6125234;23;20164;-75
2022/04/11 09:00:25;;;;;;;2.83;2.00;;;;;;;9.59;46.01;99987.63;6124324;23;20160;-75
2022/04/11 09:02:51;;;;;;;2.57;2.07;;;;;;;9.75;45.37;99989.91;6124392;23;20203;-76
2022/04/11 09:05:21;;;;;;;3.70;2.17;;;;;;;9.85;45.02;100000.16;6124721;23;20202;-76
2022/04/11 09:07:53;;;;;;;2.67;2.00;;;;;;;10.01;43.81;99987.22;6124397;23;20168;-75
2022/04/11 09:10:28;;;;;;;2.20;1.83;;;;;;;10.06;43.30;99984.72;6124924;23;20171;-76
2022/04/11 09:12:59;;;;;;;2.90;1.90;;;;;;;10.17;42.84;99990.53;6124800;23;20628;-77
2022/04/11 09:15:26;;;;;;;2.67;1.80;;;;;;;10.32;42.59;99985.75;6124421;23;20160;-76
2022/04/11 09:17:55;;;;;;;2.07;1.77;;;;;;;10.50;42.28;99994.75;6124204;23;20167;-76
2022/04/11 09:20:25;;;;;;;3.30;1.90;;;;;;;10.07;41.33;99983.72;6124359;23;20164;-76
2022/04/11 09:22:52;;;;;;;2.17;1.70;;;;;;;10.29;41.29;99991.53;6124689;23;20150;-76
2022/04/11 09:25:21;;;;;;;5.00;1.70;;;;;;;10.15;41.86;99983.53;6125561;23;20159;-76
2022/04/11 09:28:03;;;;;;;2.60;1.70;;;;;;;10.01;42.68;99981.84;6126320;23;20625;-78
2022/04/11 09:30:33;;;;;;;2.83;1.60;;;;;;;10.10;42.66;99985.97;6126876;23;20247;-77
2022/04/11 09:33:05;;;;;;;3.23;1.90;;;;;;;10.18;42.90;99981.44;6126411;23;20160;-76
2022/04/11 09:35:34;;;;;;;2.17;1.60;;;;;;;10.31;44.38;99981.44;6126385;23;20495;-77
2022/04/11 09:38:13;;;;;;;2.23;1.70;;;;;;;10.13;40.77;99974.00;6100899;23;20184;-76
2022/04/11 09:40:50;;;;;;;2.03;1.60;;;;;;;10.21;40.88;99970.34;6126549;23;20210;-76
2022/04/11 09:43:28;;;;;;;2.23;1.50;;;;;;;10.21;40.04;99975.69;6126447;23;20270;-76
2022/04/11 09:45:55;;;;;;;2.97;1.60;;;;;;;10.01;40.96;99970.31;6126313;23;20219;-76
2022/04/11 09:48:24;;;;;;;3.60;1.60;;;;;;;10.12;40.52;99967.03;6126423;23;20164;-76
2022/04/11 09:50:53;;;;;;;2.50;1.60;;;;;;;10.26;40.57;99971.34;6126393;23;20164;-76
2022/04/11 09:53:23;;;;;;;2.07;1.30;;;;;;;10.12;39.77;99972.38;6126225;23;20197;-77
2022/04/11 09:55:52;;;;;;;1.40;1.30;;;;;;;10.25;40.12;99968.88;6126305;23;20172;-76
2022/04/11 09:58:21;;;;;;;1.40;1.30;;;;;;;10.28;39.73;99957.75;6126494;23;20262;-76
2022/04/11 10:00:50;;;;;;;2.90;1.50;;;;;;;10.28;39.97;99950.53;6126325;23;20224;-76
2022/04/11 10:03:20;;;;;;;3.17;1.47;;;;;;;10.50;40.51;99964.47;6126629;23;20480;-76
2022/04/11 10:05:46;;;;;;;2.20;1.20;;;;;;;10.47;38.26;99956.88;6126089;23;20222;-76
2022/04/11 10:08:13;;;;;;;4.77;1.50;;;;;;;10.60;38.79;99954.13;6100609;23;20159;-76
2022/04/11 10:10:41;;;;;;;3.50;1.50;;;;;;;10.71;39.56;99949.97;6126065;23;20243;-76
2022/04/11 10:13:11;;;;;;;1.70;1.33;;;;;;;10.84;39.27;99955.28;6126469;23;20236;-77
2022/04/11 10:15:40;;;;;;;2.80;1.33;;;;;;;11.06;39.75;99953.13;6100725;23;20172;-76
2022/04/11 10:18:08;;;;;;;2.77;1.60;;;;;;;11.17;38.84;99949.75;6125838;23;20207;-76
2022/04/11 10:20:37;;;;;;;2.30;1.57;;;;;;;10.92;38.06;99949.66;6100764;23;20222;-76
2022/04/11 10:23:14;;;;;;;2.90;1.57;;;;;;;10.94;39.24;99942.25;6100560;23;20247;-76
2022/04/11 10:25:46;;;;;;;2.40;1.30;;;;;;;11.14;39.22;99944.81;6126080;23;20179;-77
2022/04/11 10:28:27;;;;;;;1.77;1.50;;;;;;;11.06;39.35;99934.34;6126044;23;20160;-76
2022/04/11 10:31:11;;;;;;;2.20;1.60;;;;;;;11.08;38.20;99935.78;6126365;23;20148;-76
2022/04/11 10:33:55;;;;;;;3.43;1.30;;;;;;;11.10;37.54;99936.41;6125997;23;20187;-76
2022/04/11 10:36:28;;;;;;;1.43;1.33;;;;;;;11.21;38.38;99934.88;6125720;23;20827;-76
2022/04/11 10:39:16;;;;;;;2.37;1.23;;;;;;;11.24;37.20;99940.63;6126185;23;20164;-76
2022/04/11 10:41:58;;;;;;;2.63;1.43;;;;;;;11.20;36.22;99934.03;6126085;23;20191;-76
2022/04/11 10:44:37;;;;;;;1.33;1.00;;;;;;;11.37;36.46;99929.81;6125899;23;20191;-76
2022/04/11 10:47:12;;;;;;;2.67;1.00;;;;;;;11.44;36.40;99929.75;6125719;23;20492;-76
2022/04/11 10:49:45;;;;;;;1.33;1.23;;;;;;;11.47;37.05;99924.78;6126194;23;20395;-76
2022/04/11 10:52:27;;;;;;;1.97;1.10;;;;;;;11.08;35.21;99919.69;6125622;23;20549;-76
2022/04/11 10:54:55;;;;;;;3.07;1.30;;;;;;;11.28;35.60;99928.44;6126065;23;20170;-76
2022/04/11 10:57:32;;;;;;;2.00;1.20;;;;;;;11.46;34.82;99916.94;6099759;23;20214;-76
2022/04/11 11:00:14;;;;;;;1.53;1.00;;;;;;;11.63;36.78;99914.53;6126018;23;20159;-76
2022/04/11 11:02:53;;;;;;;2.07;1.20;;;;;;;11.83;35.36;99921.41;6125500;23;20179;-76
2022/04/11 11:05:30;;;;;;;1.97;1.13;;;;;;;11.98;34.82;99913.00;6125576;23;20152;-77
2022/04/11 11:08:06;;;;;;;2.53;1.00;;;;;;;11.83;32.63;99905.31;6125730;23;20199;-76
2022/04/11 11:10:41;;;;;;;2.30;1.10;;;;;;;11.72;32.73;99903.34;6125491;23;20263;-77
2022/04/11 11:13:27;;;;;;;2.40;1.37;;;;;;;12.05;32.90;99899.50;6125654;23;20156;-77
2022/04/11 11:15:54;;;;;;;2.27;1.20;;;;;;;12.10;32.62;99894.28;6125698;23;20190;-76
2022/04/11 11:18:21;;;;;;;1.70;0.90;;;;;;;12.23;32.21;99886.06;6125235;23;20203;-76
2022/04/11 11:20:53;;;;;;;2.23;1.10;;;;;;;12.14;32.89;99893.63;6125244;23;20183;-76
2022/04/11 11:23:21;;;;;;;1.47;1.00;;;;;;;12.33;32.64;99889.06;6100063;23;20174;-77
2022/04/11 11:25:50;;;;;;;2.60;1.20;;;;;;;12.47;31.96;99876.28;6125503;23;20168;-76
2022/04/11 11:28:16;;;;;;;2.67;1.00;;;;;;;12.67;33.33;99882.25;6125318;23;20156;-77
2022/04/11 11:30:43;;;;;;;1.50;1.00;;;;;;;12.69;33.06;99883.66;6125170;23;20171;-76
2022/04/11 11:33:15;;;;;;;2.50;1.00;;;;;;;12.72;31.44;99883.22;6125379;23;20219;-79
2022/04/11 11:35:50;;;;;;;1.63;1.13;;;;;;;12.86;31.89;99881.16;6125297;23;20187;-76
2022/04/11 11:38:24;;;;;;;2.20;1.20;;;;;;;13.09;31.68;99877.72;6125349;23;20183;-76
2022/04/11 11:40:55;;;;;;;2.07;1.10;;;;;;;13.13;31.22;99868.16;6125024;23;20620;-77
2022/04/11 11:43:24;;;;;;;1.73;1.00;;;;;;;12.84;31.99;99867.13;6125107;23;20184;-77